NKS3842 KMYR-KLBE
Flight info
| Callsign | NKS3842 |
|---|---|
| Flight time | 1h 11m |
| Altitude | 31000 |
| Route | RYCKI Q69 LUNDD/N0451F330 Q69 RICCS IHD |
| Aircraft | A320/M-SDE3FGHIRWY/LB1 |
Departure
| Time | 2026-05-06 18:11 |
|---|---|
| Airport | Myrtle Beach International Airport (KMYR) |
Arrival
| Time | 2026-05-06 19:22 |
|---|---|
| Airport | Arnold Palmer Regional Airport (KLBE) |
| Time | Latitude | Longitude | Altitude | Speed | Heading |
|---|---|---|---|---|---|
| 2026-05-06 17:43 | 33.68069 | -78.92423 | 32 ft | 0 kts | 194° |
| 2026-05-06 18:03 | 33.68076 | -78.92420 | 32 ft | 2 kts | 190° |
| 2026-05-06 18:04 | 33.68096 | -78.92418 | 29 ft | 3 kts | 174° |
| 2026-05-06 18:04 | 33.68116 | -78.92422 | 31 ft | 3 kts | 167° |
| 2026-05-06 18:04 | 33.68135 | -78.92427 | 30 ft | 3 kts | 166° |
| 2026-05-06 18:04 | 33.68154 | -78.92434 | 29 ft | 3 kts | 162° |
| 2026-05-06 18:05 | 33.68168 | -78.92438 | 30 ft | 1 kts | 170° |
| 2026-05-06 18:05 | 33.68169 | -78.92439 | 30 ft | 0 kts | 170° |
| 2026-05-06 18:07 | 33.68145 | -78.92438 | 30 ft | 8 kts | 190° |
| 2026-05-06 18:07 | 33.68118 | -78.92511 | 32 ft | 13 kts | 264° |
| 2026-05-06 18:07 | 33.68098 | -78.92632 | 32 ft | 14 kts | 264° |
| 2026-05-06 18:08 | 33.68168 | -78.92679 | 32 ft | 15 kts | 351° |
| 2026-05-06 18:08 | 33.68290 | -78.92711 | 32 ft | 21 kts | 348° |
| 2026-05-06 18:08 | 33.68446 | -78.92750 | 32 ft | 25 kts | 347° |
| 2026-05-06 18:08 | 33.68623 | -78.92792 | 32 ft | 27 kts | 348° |
| 2026-05-06 18:09 | 33.68804 | -78.92838 | 32 ft | 23 kts | 348° |
| 2026-05-06 18:09 | 33.68943 | -78.92869 | 31 ft | 15 kts | 359° |
| 2026-05-06 18:09 | 33.69045 | -78.92855 | 32 ft | 17 kts | 347° |
| 2026-05-06 18:09 | 33.69153 | -78.92884 | 32 ft | 15 kts | 349° |
| 2026-05-06 18:10 | 33.69255 | -78.92908 | 32 ft | 14 kts | 347° |
| 2026-05-06 18:10 | 33.69265 | -78.93013 | 32 ft | 16 kts | 256° |
| 2026-05-06 18:10 | 33.69240 | -78.93131 | 33 ft | 6 kts | 243° |
| 2026-05-06 18:10 | 33.69197 | -78.93139 | 33 ft | 5 kts | 166° |
| 2026-05-06 18:11 | 33.69007 | -78.93091 | 35 ft | 59 kts | 168° |
| 2026-05-06 18:11 | 33.68407 | -78.92942 | 31 ft | 115 kts | 168° |
| 2026-05-06 18:11 | 33.67480 | -78.92709 | 127 ft | 147 kts | 169° |
| 2026-05-06 18:11 | 33.66506 | -78.92454 | 816 ft | 143 kts | 171° |
| 2026-05-06 18:12 | 33.65525 | -78.92261 | 1525 ft | 140 kts | 184° |
| 2026-05-06 18:12 | 33.64599 | -78.92435 | 2151 ft | 131 kts | 204° |
| 2026-05-06 18:12 | 33.63909 | -78.93071 | 2465 ft | 134 kts | 240° |
| 2026-05-06 18:12 | 33.63771 | -78.94245 | 2627 ft | 159 kts | 286° |
| 2026-05-06 18:13 | 33.64484 | -78.95305 | 3114 ft | 180 kts | 326° |
| 2026-05-06 18:13 | 33.65690 | -78.95987 | 3414 ft | 203 kts | 332° |
| 2026-05-06 18:13 | 33.67084 | -78.96680 | 3694 ft | 230 kts | 334° |
| 2026-05-06 18:13 | 33.68642 | -78.97440 | 4124 ft | 255 kts | 334° |
| 2026-05-06 18:14 | 33.70339 | -78.98270 | 4777 ft | 269 kts | 334° |
| 2026-05-06 18:14 | 33.72084 | -78.99132 | 5647 ft | 273 kts | 334° |
| 2026-05-06 18:14 | 33.73843 | -79.00012 | 6581 ft | 275 kts | 333° |
| 2026-05-06 18:14 | 33.75609 | -79.00904 | 7447 ft | 276 kts | 333° |
| 2026-05-06 18:15 | 33.77387 | -79.01806 | 8318 ft | 277 kts | 332° |
| 2026-05-06 18:15 | 33.79169 | -79.02711 | 9209 ft | 278 kts | 331° |
| 2026-05-06 18:15 | 33.80955 | -79.03623 | 10051 ft | 279 kts | 330° |
| 2026-05-06 18:15 | 33.82789 | -79.04567 | 10432 ft | 297 kts | 330° |
| 2026-05-06 18:16 | 33.84761 | -79.05593 | 10606 ft | 320 kts | 331° |
| 2026-05-06 18:16 | 33.86838 | -79.06670 | 11067 ft | 330 kts | 331° |
| 2026-05-06 18:16 | 33.88963 | -79.07761 | 11708 ft | 334 kts | 331° |
| 2026-05-06 18:16 | 33.91109 | -79.08859 | 12409 ft | 337 kts | 331° |
| 2026-05-06 18:17 | 33.93274 | -79.09968 | 13095 ft | 340 kts | 330° |
| 2026-05-06 18:17 | 33.95457 | -79.11087 | 13788 ft | 342 kts | 330° |
| 2026-05-06 18:17 | 33.97626 | -79.12201 | 14410 ft | 345 kts | 330° |
| 2026-05-06 18:17 | 33.99842 | -79.13340 | 15049 ft | 347 kts | 330° |
| 2026-05-06 18:18 | 34.02064 | -79.14484 | 15682 ft | 348 kts | 330° |
| 2026-05-06 18:18 | 34.04298 | -79.15634 | 16311 ft | 350 kts | 330° |
| 2026-05-06 18:18 | 34.06544 | -79.16793 | 16937 ft | 352 kts | 330° |
| 2026-05-06 18:18 | 34.08797 | -79.17958 | 17566 ft | 354 kts | 330° |
| 2026-05-06 18:19 | 34.11070 | -79.19133 | 18182 ft | 357 kts | 331° |
| 2026-05-06 18:19 | 34.13359 | -79.20317 | 18749 ft | 360 kts | 331° |
| 2026-05-06 18:19 | 34.15668 | -79.21516 | 19251 ft | 364 kts | 331° |
| 2026-05-06 18:19 | 34.18010 | -79.22737 | 19755 ft | 368 kts | 331° |
| 2026-05-06 18:20 | 34.20375 | -79.23969 | 20257 ft | 373 kts | 331° |
| 2026-05-06 18:20 | 34.22772 | -79.25214 | 20753 ft | 377 kts | 332° |
| 2026-05-06 18:20 | 34.25198 | -79.26471 | 21241 ft | 381 kts | 332° |
| 2026-05-06 18:20 | 34.27652 | -79.27742 | 21722 ft | 385 kts | 332° |
| 2026-05-06 18:21 | 34.30128 | -79.29024 | 22187 ft | 390 kts | 332° |
| 2026-05-06 18:21 | 34.32633 | -79.30323 | 22653 ft | 393 kts | 332° |
| 2026-05-06 18:21 | 34.35126 | -79.31619 | 23107 ft | 397 kts | 332° |
| 2026-05-06 18:21 | 34.37677 | -79.32948 | 23566 ft | 401 kts | 332° |
| 2026-05-06 18:22 | 34.40248 | -79.34285 | 23960 ft | 404 kts | 332° |
| 2026-05-06 18:22 | 34.42836 | -79.35630 | 24357 ft | 406 kts | 332° |
| 2026-05-06 18:22 | 34.45438 | -79.36986 | 24753 ft | 408 kts | 332° |
| 2026-05-06 18:22 | 34.48049 | -79.38351 | 25168 ft | 410 kts | 332° |
| 2026-05-06 18:23 | 34.50674 | -79.39727 | 25547 ft | 412 kts | 332° |
| 2026-05-06 18:23 | 34.53310 | -79.41108 | 25933 ft | 414 kts | 332° |
| 2026-05-06 18:23 | 34.55964 | -79.42495 | 26317 ft | 416 kts | 332° |
| 2026-05-06 18:23 | 34.58630 | -79.43888 | 26692 ft | 418 kts | 331° |
| 2026-05-06 18:24 | 34.61306 | -79.45289 | 27076 ft | 420 kts | 331° |
| 2026-05-06 18:24 | 34.63958 | -79.46683 | 27448 ft | 422 kts | 331° |
| 2026-05-06 18:24 | 34.66657 | -79.48103 | 27813 ft | 424 kts | 331° |
| 2026-05-06 18:24 | 34.69372 | -79.49532 | 28188 ft | 426 kts | 331° |
| 2026-05-06 18:25 | 34.72097 | -79.50964 | 28551 ft | 428 kts | 331° |
| 2026-05-06 18:25 | 34.74841 | -79.52408 | 28911 ft | 430 kts | 330° |
| 2026-05-06 18:25 | 34.77589 | -79.53857 | 29258 ft | 432 kts | 330° |
| 2026-05-06 18:25 | 34.80358 | -79.55317 | 29592 ft | 434 kts | 330° |
| 2026-05-06 18:26 | 34.83138 | -79.56778 | 29928 ft | 436 kts | 330° |
| 2026-05-06 18:26 | 34.85934 | -79.58246 | 30217 ft | 438 kts | 330° |
| 2026-05-06 18:26 | 34.88736 | -79.59719 | 30557 ft | 438 kts | 330° |
| 2026-05-06 18:26 | 34.91526 | -79.61185 | 30920 ft | 436 kts | 330° |
| 2026-05-06 18:27 | 34.97020 | -79.64074 | 31041 ft | 423 kts | 329° |
| 2026-05-06 18:27 | 35.02380 | -79.66910 | 31022 ft | 418 kts | 329° |
| 2026-05-06 18:28 | 35.07706 | -79.69746 | 31021 ft | 417 kts | 329° |
| 2026-05-06 18:28 | 35.13035 | -79.72581 | 31017 ft | 417 kts | 329° |
| 2026-05-06 18:29 | 35.18358 | -79.75418 | 31019 ft | 417 kts | 329° |
| 2026-05-06 18:29 | 35.23649 | -79.78236 | 31019 ft | 417 kts | 329° |
| 2026-05-06 18:30 | 35.28974 | -79.81074 | 31036 ft | 418 kts | 329° |
| 2026-05-06 18:30 | 35.34306 | -79.83915 | 31050 ft | 417 kts | 329° |
| 2026-05-06 18:31 | 35.39629 | -79.86752 | 31064 ft | 417 kts | 328° |
| 2026-05-06 18:31 | 35.44953 | -79.89601 | 31048 ft | 417 kts | 328° |
| 2026-05-06 18:32 | 35.50273 | -79.92448 | 31055 ft | 417 kts | 328° |
| 2026-05-06 18:32 | 35.55586 | -79.95300 | 31066 ft | 417 kts | 328° |
| 2026-05-06 18:33 | 35.60894 | -79.98163 | 31060 ft | 416 kts | 328° |
| 2026-05-06 18:33 | 35.66187 | -80.01022 | 31071 ft | 415 kts | 328° |
| 2026-05-06 18:34 | 35.71445 | -80.03856 | 31061 ft | 415 kts | 328° |
| 2026-05-06 18:34 | 35.76727 | -80.06704 | 31059 ft | 414 kts | 328° |
| 2026-05-06 18:35 | 35.82002 | -80.09557 | 31026 ft | 413 kts | 328° |
| 2026-05-06 18:35 | 35.87261 | -80.12412 | 31032 ft | 413 kts | 328° |
| 2026-05-06 18:36 | 35.92516 | -80.15261 | 31024 ft | 412 kts | 328° |
| 2026-05-06 18:36 | 35.97769 | -80.18107 | 31025 ft | 412 kts | 328° |
| 2026-05-06 18:37 | 36.02136 | -80.20481 | 31025 ft | 412 kts | 327° |
| 2026-05-06 18:37 | 36.08269 | -80.23830 | 31020 ft | 412 kts | 327° |
| 2026-05-06 18:38 | 36.13484 | -80.26682 | 31012 ft | 413 kts | 327° |
| 2026-05-06 18:38 | 36.18741 | -80.29555 | 30999 ft | 413 kts | 327° |
| 2026-05-06 18:39 | 36.23998 | -80.32433 | 30989 ft | 414 kts | 327° |
| 2026-05-06 18:40 | 36.31899 | -80.36763 | 30997 ft | 414 kts | 327° |
| 2026-05-06 18:40 | 36.37176 | -80.39663 | 30999 ft | 416 kts | 328° |
| 2026-05-06 18:40 | 36.39960 | -80.40787 | 31002 ft | 428 kts | 339° |
| 2026-05-06 18:41 | 36.42959 | -80.41227 | 31000 ft | 442 kts | 350° |
| 2026-05-06 18:41 | 36.46074 | -80.40905 | 30996 ft | 455 kts | 0° |
| 2026-05-06 18:41 | 36.48142 | -80.40478 | 30997 ft | 456 kts | 0° |
| 2026-05-06 18:42 | 36.54410 | -80.39181 | 30992 ft | 457 kts | 0° |
| 2026-05-06 18:42 | 36.60693 | -80.37896 | 30988 ft | 458 kts | 0° |
| 2026-05-06 18:43 | 36.66997 | -80.36619 | 30986 ft | 460 kts | 0° |
| 2026-05-06 18:43 | 36.73320 | -80.35334 | 30979 ft | 461 kts | 0° |
| 2026-05-06 18:44 | 36.79656 | -80.34242 | 30976 ft | 458 kts | 358° |
| 2026-05-06 18:44 | 36.85991 | -80.33423 | 30965 ft | 458 kts | 356° |
| 2026-05-06 18:45 | 36.92348 | -80.32609 | 30966 ft | 460 kts | 357° |
| 2026-05-06 18:45 | 36.98675 | -80.31724 | 30969 ft | 462 kts | 358° |
| 2026-05-06 18:46 | 37.05064 | -80.30782 | 30979 ft | 463 kts | 358° |
| 2026-05-06 18:46 | 37.11463 | -80.29852 | 30984 ft | 463 kts | 358° |
| 2026-05-06 18:47 | 37.17867 | -80.28935 | 30988 ft | 463 kts | 357° |
| 2026-05-06 18:47 | 37.24280 | -80.28030 | 30989 ft | 464 kts | 357° |
| 2026-05-06 18:48 | 37.30693 | -80.27120 | 30986 ft | 464 kts | 357° |
| 2026-05-06 18:48 | 37.37115 | -80.26187 | 30974 ft | 465 kts | 357° |
| 2026-05-06 18:49 | 37.43548 | -80.25260 | 30938 ft | 465 kts | 356° |
| 2026-05-06 18:49 | 37.49936 | -80.24344 | 30939 ft | 465 kts | 356° |
| 2026-05-06 18:50 | 37.56374 | -80.23415 | 30934 ft | 466 kts | 356° |
| 2026-05-06 18:50 | 37.62815 | -80.22481 | 30946 ft | 466 kts | 356° |
| 2026-05-06 18:51 | 37.69266 | -80.21543 | 30959 ft | 467 kts | 356° |
| 2026-05-06 18:51 | 37.75718 | -80.20586 | 30950 ft | 466 kts | 355° |
| 2026-05-06 18:52 | 37.82160 | -80.19615 | 30955 ft | 466 kts | 355° |
| 2026-05-06 18:52 | 37.88614 | -80.18638 | 30970 ft | 467 kts | 355° |
| 2026-05-06 18:53 | 37.95073 | -80.17668 | 30968 ft | 466 kts | 355° |
| 2026-05-06 18:53 | 38.01463 | -80.16709 | 30964 ft | 466 kts | 355° |
| 2026-05-06 18:54 | 38.07888 | -80.15746 | 30962 ft | 464 kts | 354° |
| 2026-05-06 18:54 | 38.14302 | -80.14787 | 30956 ft | 463 kts | 354° |
| 2026-05-06 18:55 | 38.20690 | -80.13830 | 30945 ft | 462 kts | 354° |
| 2026-05-06 18:55 | 38.27074 | -80.12865 | 30941 ft | 461 kts | 354° |
| 2026-05-06 18:56 | 38.33443 | -80.11891 | 30939 ft | 460 kts | 354° |
| 2026-05-06 18:56 | 38.39783 | -80.11065 | 30940 ft | 454 kts | 351° |
| 2026-05-06 18:57 | 38.46048 | -80.10735 | 30939 ft | 448 kts | 348° |
| 2026-05-06 18:57 | 38.52261 | -80.10542 | 30927 ft | 446 kts | 348° |
| 2026-05-06 18:58 | 38.58479 | -80.10267 | 30936 ft | 448 kts | 349° |
| 2026-05-06 18:58 | 38.64705 | -80.09910 | 30934 ft | 447 kts | 349° |
| 2026-05-06 18:59 | 38.70917 | -80.09547 | 30935 ft | 447 kts | 349° |
| 2026-05-06 18:59 | 38.77126 | -80.09203 | 30935 ft | 446 kts | 349° |
| 2026-05-06 19:00 | 38.83291 | -80.08866 | 30939 ft | 447 kts | 349° |
| 2026-05-06 19:00 | 38.89513 | -80.08443 | 30939 ft | 455 kts | 354° |
| 2026-05-06 19:00 | 38.92669 | -80.07578 | 30938 ft | 474 kts | 5° |
| 2026-05-06 19:01 | 38.95774 | -80.05929 | 30937 ft | 492 kts | 16° |
| 2026-05-06 19:01 | 39.01838 | -80.01804 | 30925 ft | 494 kts | 16° |
| 2026-05-06 19:02 | 39.07904 | -79.97646 | 30917 ft | 494 kts | 16° |
| 2026-05-06 19:02 | 39.13972 | -79.93504 | 30698 ft | 494 kts | 16° |
| 2026-05-06 19:02 | 39.17011 | -79.91433 | 30451 ft | 492 kts | 16° |
| 2026-05-06 19:03 | 39.20024 | -79.89375 | 29842 ft | 490 kts | 16° |
| 2026-05-06 19:03 | 39.23037 | -79.87315 | 29180 ft | 489 kts | 17° |
| 2026-05-06 19:03 | 39.26032 | -79.85258 | 28571 ft | 486 kts | 17° |
| 2026-05-06 19:03 | 39.29008 | -79.83217 | 27957 ft | 483 kts | 17° |
| 2026-05-06 19:04 | 39.31968 | -79.81191 | 27345 ft | 481 kts | 17° |
| 2026-05-06 19:04 | 39.34887 | -79.79193 | 26754 ft | 479 kts | 17° |
| 2026-05-06 19:04 | 39.37829 | -79.77177 | 26165 ft | 477 kts | 17° |
| 2026-05-06 19:04 | 39.40758 | -79.75167 | 25594 ft | 475 kts | 17° |
| 2026-05-06 19:05 | 39.43669 | -79.73167 | 25029 ft | 473 kts | 17° |
| 2026-05-06 19:05 | 39.46571 | -79.71173 | 24480 ft | 471 kts | 17° |
| 2026-05-06 19:05 | 39.49462 | -79.69183 | 23940 ft | 469 kts | 18° |
| 2026-05-06 19:05 | 39.52339 | -79.67196 | 23396 ft | 468 kts | 18° |
| 2026-05-06 19:06 | 39.55202 | -79.65216 | 22817 ft | 465 kts | 18° |
| 2026-05-06 19:06 | 39.58040 | -79.63253 | 22291 ft | 461 kts | 18° |
| 2026-05-06 19:06 | 39.60860 | -79.61299 | 21744 ft | 458 kts | 18° |
| 2026-05-06 19:06 | 39.63657 | -79.59358 | 21307 ft | 453 kts | 18° |
| 2026-05-06 19:07 | 39.66425 | -79.57435 | 20797 ft | 449 kts | 18° |
| 2026-05-06 19:07 | 39.69161 | -79.55531 | 20418 ft | 444 kts | 18° |
| 2026-05-06 19:07 | 39.71871 | -79.53646 | 19983 ft | 440 kts | 18° |
| 2026-05-06 19:07 | 39.74554 | -79.51781 | 19569 ft | 435 kts | 18° |
| 2026-05-06 19:08 | 39.77215 | -79.49933 | 19173 ft | 431 kts | 18° |
| 2026-05-06 19:08 | 39.79843 | -79.48105 | 18763 ft | 426 kts | 19° |
| 2026-05-06 19:08 | 39.82444 | -79.46295 | 18363 ft | 422 kts | 19° |
| 2026-05-06 19:08 | 39.85019 | -79.44502 | 17988 ft | 416 kts | 19° |
| 2026-05-06 19:09 | 39.87527 | -79.42743 | 17900 ft | 400 kts | 19° |
| 2026-05-06 19:09 | 39.89949 | -79.41039 | 17931 ft | 395 kts | 19° |
| 2026-05-06 19:09 | 39.92328 | -79.39201 | 17930 ft | 401 kts | 25° |
| 2026-05-06 19:09 | 39.94618 | -79.37128 | 17741 ft | 399 kts | 26° |
| 2026-05-06 19:10 | 39.96855 | -79.35084 | 17211 ft | 397 kts | 26° |
| 2026-05-06 19:10 | 39.99113 | -79.33047 | 16718 ft | 394 kts | 26° |
| 2026-05-06 19:10 | 40.01366 | -79.31044 | 16249 ft | 390 kts | 27° |
| 2026-05-06 19:10 | 40.03611 | -79.29082 | 15709 ft | 387 kts | 26° |
| 2026-05-06 19:11 | 40.05846 | -79.27158 | 15086 ft | 383 kts | 27° |
| 2026-05-06 19:11 | 40.08079 | -79.25280 | 14480 ft | 380 kts | 26° |
| 2026-05-06 19:11 | 40.10309 | -79.23445 | 13882 ft | 377 kts | 26° |
| 2026-05-06 19:11 | 40.12533 | -79.21651 | 13279 ft | 374 kts | 26° |
| 2026-05-06 19:12 | 40.14742 | -79.19885 | 12665 ft | 371 kts | 26° |
| 2026-05-06 19:12 | 40.16935 | -79.18134 | 12088 ft | 367 kts | 26° |
| 2026-05-06 19:12 | 40.19103 | -79.16405 | 11533 ft | 364 kts | 26° |
| 2026-05-06 19:12 | 40.21255 | -79.14692 | 10975 ft | 361 kts | 26° |
| 2026-05-06 19:13 | 40.23398 | -79.12981 | 10450 ft | 358 kts | 26° |
| 2026-05-06 19:13 | 40.25485 | -79.11310 | 10229 ft | 344 kts | 26° |
| 2026-05-06 19:13 | 40.27478 | -79.09700 | 10078 ft | 330 kts | 26° |
| 2026-05-06 19:13 | 40.29409 | -79.08127 | 9756 ft | 324 kts | 26° |
| 2026-05-06 19:14 | 40.31322 | -79.06568 | 9424 ft | 323 kts | 26° |
| 2026-05-06 19:14 | 40.33220 | -79.05024 | 9018 ft | 318 kts | 26° |
| 2026-05-06 19:14 | 40.35162 | -79.03741 | 8458 ft | 306 kts | 9° |
| 2026-05-06 19:14 | 40.37195 | -79.03359 | 7941 ft | 287 kts | 348° |
| 2026-05-06 19:15 | 40.39032 | -79.03834 | 7808 ft | 255 kts | 330° |
| 2026-05-06 19:15 | 40.40503 | -79.04849 | 7674 ft | 226 kts | 314° |
| 2026-05-06 19:15 | 40.41596 | -79.06188 | 7361 ft | 207 kts | 301° |
| 2026-05-06 19:15 | 40.42347 | -79.07762 | 7063 ft | 200 kts | 288° |
| 2026-05-06 19:16 | 40.42826 | -79.09457 | 6773 ft | 199 kts | 286° |
| 2026-05-06 19:16 | 40.43283 | -79.11177 | 6464 ft | 200 kts | 285° |
| 2026-05-06 19:16 | 40.43746 | -79.12904 | 6158 ft | 201 kts | 285° |
| 2026-05-06 19:16 | 40.44211 | -79.14627 | 5877 ft | 199 kts | 283° |
| 2026-05-06 19:17 | 40.44337 | -79.16380 | 5585 ft | 195 kts | 264° |
| 2026-05-06 19:17 | 40.44006 | -79.18101 | 5353 ft | 198 kts | 246° |
| 2026-05-06 19:17 | 40.43223 | -79.19600 | 5190 ft | 203 kts | 229° |
| 2026-05-06 19:17 | 40.42233 | -79.20931 | 5117 ft | 206 kts | 229° |
| 2026-05-06 19:18 | 40.41241 | -79.22274 | 4922 ft | 204 kts | 229° |
| 2026-05-06 19:18 | 40.40249 | -79.23614 | 4678 ft | 205 kts | 229° |
| 2026-05-06 19:18 | 40.39258 | -79.24953 | 4403 ft | 205 kts | 229° |
| 2026-05-06 19:18 | 40.38262 | -79.26297 | 4126 ft | 203 kts | 229° |
| 2026-05-06 19:19 | 40.37304 | -79.27587 | 3893 ft | 191 kts | 229° |
| 2026-05-06 19:19 | 40.36412 | -79.28788 | 3609 ft | 181 kts | 229° |
| 2026-05-06 19:19 | 40.35545 | -79.29956 | 3372 ft | 172 kts | 229° |
| 2026-05-06 19:19 | 40.34729 | -79.31056 | 3149 ft | 169 kts | 229° |
| 2026-05-06 19:20 | 40.33906 | -79.32164 | 2920 ft | 166 kts | 229° |
| 2026-05-06 19:20 | 40.33121 | -79.33221 | 2701 ft | 162 kts | 229° |
| 2026-05-06 19:20 | 40.32333 | -79.34281 | 2481 ft | 162 kts | 229° |
| 2026-05-06 19:20 | 40.31554 | -79.35328 | 2240 ft | 155 kts | 227° |
| 2026-05-06 19:21 | 40.30834 | -79.36295 | 2045 ft | 143 kts | 229° |
| 2026-05-06 19:21 | 40.30157 | -79.37219 | 1857 ft | 138 kts | 228° |
| 2026-05-06 19:21 | 40.29482 | -79.38114 | 1702 ft | 138 kts | 227° |
| 2026-05-06 19:21 | 40.28802 | -79.38999 | 1496 ft | 136 kts | 230° |
| 2026-05-06 19:22 | 40.28152 | -79.39902 | 1292 ft | 135 kts | 226° |
| 2026-05-06 19:22 | 40.27517 | -79.40761 | 1197 ft | 120 kts | 225° |
| 2026-05-06 19:22 | 40.27032 | -79.41407 | 1190 ft | 74 kts | 225° |
| 2026-05-06 19:22 | 40.26841 | -79.41661 | 1189 ft | 18 kts | 217° |
| 2026-05-06 19:23 | 40.26764 | -79.41618 | 1191 ft | 14 kts | 133° |
| 2026-05-06 19:23 | 40.26790 | -79.41528 | 1193 ft | 12 kts | 46° |
| 2026-05-06 19:23 | 40.26855 | -79.41439 | 1194 ft | 14 kts | 45° |
| 2026-05-06 19:23 | 40.26930 | -79.41340 | 1194 ft | 17 kts | 46° |
| 2026-05-06 19:24 | 40.27023 | -79.41213 | 1190 ft | 22 kts | 45° |
| 2026-05-06 19:24 | 40.27135 | -79.41064 | 1186 ft | 25 kts | 45° |
| 2026-05-06 19:24 | 40.27260 | -79.40898 | 1187 ft | 25 kts | 45° |
| 2026-05-06 19:24 | 40.27366 | -79.40754 | 1187 ft | 22 kts | 46° |
| 2026-05-06 19:25 | 40.27427 | -79.40672 | 1189 ft | 6 kts | 46° |
| 2026-05-06 19:25 | 40.27436 | -79.40636 | 1191 ft | 3 kts | 103° |
| 2026-05-06 19:25 | 40.27417 | -79.40611 | 1191 ft | 4 kts | 137° |
| 2026-05-06 19:25 | 40.27392 | -79.40593 | 1192 ft | 4 kts | 168° |
| 2026-05-06 19:26 | 40.27373 | -79.40596 | 1192 ft | 2 kts | 185° |
| 2026-05-06 19:30 | 40.27372 | -79.40596 | 1192 ft | 0 kts | 185° |
| 2026-05-06 19:31 | 40.27373 | -79.40596 | 1192 ft | 0 kts | 185° |
| 2026-05-06 19:33 | 40.27372 | -79.40596 | 1192 ft | 0 kts | 185° |